Time;durP1;ratioP1;P1;durP2;ratioP2;P2;SDS_P1;SDS_P2;PMS_P1;PMS_P2;Temp;Humidity;BMP_temperature;BMP_pressure;BME280_temperature;BME280_humidity;BME280_pressure;Samples;Min_cycle;Max_cycle;Signal;HPM_P1;HPM_P2
2024/03/31 00:01:16;;;;;;;15.60;3.53;;;8.30;99.90;;;9.07;100.00;96455.56;5021016;28;20474;-77
2024/03/31 00:03:45;;;;;;;9.53;3.73;;;8.30;99.90;;;9.07;100.00;96455.56;5005881;28;20469;-77
2024/03/31 00:06:13;;;;;;;25.27;3.57;;;8.30;99.90;;;9.08;100.00;96451.94;5005455;28;20475;-77
2024/03/31 00:08:39;;;;;;;11.20;3.50;;;8.30;99.90;;;9.09;100.00;96453.56;5006994;28;20472;-77
2024/03/31 00:11:11;;;;;;;10.43;3.40;;;8.30;99.90;;;9.04;100.00;96450.78;5020391;28;20466;-77
2024/03/31 00:13:38;;;;;;;11.00;3.50;;;8.30;99.90;;;8.97;100.00;96458.69;5001993;28;20470;-77
2024/03/31 00:16:06;;;;;;;10.97;3.60;;;8.20;99.90;;;9.01;100.00;96457.25;5006726;28;20470;-77
2024/03/31 00:18:32;;;;;;;13.20;4.17;;;8.20;99.90;;;9.03;100.00;96449.97;5017961;28;21204;-77
2024/03/31 00:21:01;;;;;;;12.77;4.23;;;8.30;99.90;;;9.03;100.00;96457.00;5006360;28;20467;-77
2024/03/31 00:23:28;;;;;;;7.73;3.03;;;8.20;99.90;;;8.98;100.00;96462.09;5008527;28;20465;-77
2024/03/31 00:25:59;;;;;;;8.47;3.07;;;8.20;99.90;;;8.95;100.00;96458.09;5005836;28;20521;-77
2024/03/31 00:28:27;;;;;;;15.67;3.30;;;8.10;99.90;;;9.00;100.00;96460.03;4998388;28;20556;-77
2024/03/31 00:30:56;;;;;;;7.30;3.93;;;8.20;99.90;;;9.02;100.00;96460.66;5003917;28;20553;-77
2024/03/31 00:33:24;;;;;;;10.57;3.70;;;8.20;99.90;;;9.04;100.00;96464.63;5004701;28;20886;-77
2024/03/31 00:35:56;;;;;;;7.70;3.80;;;8.30;99.90;;;9.06;100.00;96461.78;4999957;28;20899;-77
2024/03/31 00:38:24;;;;;;;5.80;3.47;;;8.20;99.90;;;9.04;100.00;96461.22;4998915;28;20475;-77
2024/03/31 00:40:52;;;;;;;12.80;4.13;;;8.30;99.90;;;9.09;100.00;96456.16;5004058;28;20470;-77
2024/03/31 00:43:18;;;;;;;10.23;3.60;;;8.30;99.90;;;9.08;100.00;96457.97;5004908;28;20459;-77
2024/03/31 00:45:47;;;;;;;16.00;4.83;;;8.30;99.90;;;9.09;100.00;96453.56;5003452;28;20490;-77
2024/03/31 00:48:14;;;;;;;28.20;4.73;;;8.30;99.90;;;9.09;100.00;96451.72;5001380;28;20501;-77
2024/03/31 00:50:41;;;;;;;14.60;4.00;;;8.30;99.90;;;9.08;100.00;96449.34;5003127;28;20499;-77
2024/03/31 00:53:08;;;;;;;13.50;3.70;;;8.30;99.90;;;9.10;100.00;96444.69;5004642;28;20557;-77
2024/03/31 00:55:35;;;;;;;12.13;3.63;;;8.30;99.90;;;9.07;100.00;96445.94;5004736;28;20490;-77
2024/03/31 00:58:01;;;;;;;8.87;3.70;;;8.20;99.90;;;9.03;100.00;96449.97;5002891;28;20816;-76
2024/03/31 01:00:29;;;;;;;16.50;4.40;;;8.20;99.90;;;8.97;100.00;96455.28;5002142;28;20481;-77
2024/03/31 01:02:57;;;;;;;13.50;4.00;;;8.20;99.90;;;9.03;100.00;96457.00;5000892;28;21091;-76
2024/03/31 01:05:24;;;;;;;9.37;3.87;;;8.20;99.90;;;9.04;100.00;96454.19;5005150;28;20652;-76
2024/03/31 01:07:51;;;;;;;22.13;4.27;;;8.30;99.90;;;9.03;100.00;96449.97;5000336;28;20470;-77
2024/03/31 01:10:19;;;;;;;9.33;3.90;;;8.20;99.90;;;8.99;100.00;96453.22;5017766;28;20510;-77
2024/03/31 01:12:45;;;;;;;7.60;3.20;;;8.20;99.90;;;8.98;100.00;96452.47;5000031;28;20485;-77
2024/03/31 01:15:13;;;;;;;12.70;3.17;;;8.20;99.90;;;8.98;100.00;96447.25;5000969;28;20479;-76
2024/03/31 01:17:40;;;;;;;8.20;3.20;;;8.20;99.90;;;9.00;100.00;96447.00;4998894;28;20530;-77
2024/03/31 01:20:09;;;;;;;18.50;4.03;;;8.20;99.90;;;9.03;100.00;96449.19;5002779;28;20478;-76
2024/03/31 01:22:37;;;;;;;8.23;3.20;;;8.20;99.90;;;9.03;100.00;96449.19;4999152;28;20451;-77
2024/03/31 01:25:07;;;;;;;6.13;3.30;;;8.20;99.90;;;9.04;100.00;96440.34;5017290;28;21020;-77
2024/03/31 01:27:33;;;;;;;6.70;3.13;;;8.20;99.90;;;9.02;100.00;96442.41;5004883;28;20478;-77
2024/03/31 01:30:01;;;;;;;7.33;3.37;;;8.20;99.90;;;8.99;100.00;96432.38;5016655;28;20498;-77
2024/03/31 01:32:27;;;;;;;9.40;3.40;;;8.10;99.90;;;9.01;100.00;96440.78;5003687;28;20478;-77
2024/03/31 01:34:55;;;;;;;11.40;3.50;;;8.20;99.90;;;8.97;100.00;96435.22;5013343;28;20827;-76
2024/03/31 01:37:21;;;;;;;8.00;2.87;;;8.20;99.90;;;8.96;100.00;96438.81;5005488;28;20493;-77
2024/03/31 01:39:49;;;;;;;9.33;3.10;;;8.10;99.90;;;8.98;100.00;96436.00;4999905;28;20466;-77
2024/03/31 01:42:18;;;;;;;10.30;3.53;;;8.10;99.90;;;8.95;100.00;96431.25;4998163;28;20466;-77
2024/03/31 01:44:46;;;;;;;4.60;3.03;;;8.20;99.90;;;8.98;100.00;96430.81;5000385;28;20470;-77
2024/03/31 01:47:12;;;;;;;24.60;4.00;;;8.20;99.90;;;8.93;100.00;96443.69;4995634;28;20476;-77
2024/03/31 01:49:39;;;;;;;9.80;3.53;;;8.10;99.90;;;8.89;100.00;96445.13;4999968;28;20501;-77
2024/03/31 01:52:07;;;;;;;15.03;3.77;;;8.00;99.90;;;8.86;100.00;96448.16;4998784;28;20484;-77
2024/03/31 01:54:35;;;;;;;14.77;4.43;;;8.00;99.90;;;8.90;100.00;96444.13;5003875;28;20470;-77
2024/03/31 01:57:02;;;;;;;14.23;3.27;;;8.10;99.90;;;8.93;100.00;96448.88;4999934;28;20471;-77
2024/03/31 01:59:30;;;;;;;4.70;3.17;;;8.00;99.90;;;8.95;100.00;96447.69;5001611;28;20486;-77
2024/03/31 02:01:57;;;;;;;10.43;3.97;;;8.10;99.90;;;8.96;100.00;96448.44;5004332;28;21056;-78
2024/03/31 02:04:24;;;;;;;5.80;3.13;;;8.20;99.90;;;8.97;100.00;96450.06;5003878;28;20493;-77
2024/03/31 02:06:51;;;;;;;11.10;4.33;;;8.20;99.90;;;8.96;100.00;96461.50;5005593;28;20965;-77
2024/03/31 02:09:18;;;;;;;9.70;3.73;;;8.10;99.90;;;8.96;100.00;96458.88;5013850;28;20466;-77
2024/03/31 02:11:45;;;;;;;10.40;3.60;;;8.10;99.90;;;8.98;100.00;96462.88;4997483;28;20562;-77
2024/03/31 02:14:12;;;;;;;7.90;3.03;;;8.10;99.90;;;8.99;100.00;96461.06;4999961;28;20470;-77
2024/03/31 02:16:41;;;;;;;19.17;3.20;;;8.10;99.90;;;9.01;100.00;96448.63;4999371;28;21090;-77
2024/03/31 02:19:07;;;;;;;18.23;3.53;;;8.20;99.90;;;9.02;100.00;96452.81;4998673;28;20472;-77
2024/03/31 02:21:34;;;;;;;19.33;4.10;;;8.20;99.90;;;9.00;100.00;96449.63;4997925;28;20587;-77
2024/03/31 02:24:01;;;;;;;10.27;3.57;;;8.20;99.90;;;8.98;100.00;96455.06;5000743;28;20467;-77
2024/03/31 02:26:29;;;;;;;11.73;3.20;;;8.20;99.90;;;8.99;100.00;96450.63;5004385;28;20478;-77
2024/03/31 02:28:55;;;;;;;9.40;3.30;;;8.20;99.90;;;8.98;100.00;96442.03;5004020;28;20822;-78
2024/03/31 02:31:23;;;;;;;8.33;3.90;;;8.20;99.90;;;9.02;100.00;96442.41;4997257;28;20499;-77
2024/03/31 02:33:51;;;;;;;8.80;3.70;;;8.20;99.90;;;9.04;100.00;96429.94;5004153;28;20482;-77
2024/03/31 02:36:18;;;;;;;8.67;3.70;;;8.20;99.90;;;8.99;100.00;96427.16;5004327;28;20463;-76
2024/03/31 02:38:44;;;;;;;16.00;4.03;;;8.10;99.90;;;8.95;100.00;96423.41;5000408;28;20474;-78
2024/03/31 02:41:12;;;;;;;5.30;2.97;;;8.10;99.90;;;8.94;100.00;96416.59;5017426;28;20459;-76
2024/03/31 02:43:38;;;;;;;4.83;3.20;;;8.10;99.90;;;8.96;100.00;96401.53;5000297;28;21231;-77
2024/03/31 02:46:06;;;;;;;8.20;3.13;;;8.20;99.90;;;9.01;100.00;96392.06;5001127;28;20468;-77
2024/03/31 02:48:32;;;;;;;11.70;3.80;;;8.20;99.90;;;9.03;100.00;96382.19;5000655;28;20496;-77
2024/03/31 02:51:01;;;;;;;8.67;3.30;;;8.20;99.90;;;8.87;100.00;96389.81;5002048;28;20511;-78
2024/03/31 02:53:27;;;;;;;12.20;3.80;;;8.10;99.90;;;8.82;100.00;96374.81;5005519;28;20463;-77
2024/03/31 02:55:55;;;;;;;12.60;4.20;;;8.10;99.90;;;8.89;100.00;96365.13;5003348;28;20475;-77
2024/03/31 02:58:21;;;;;;;10.07;3.07;;;8.10;99.90;;;8.91;100.00;96363.09;5001580;28;20462;-78
2024/03/31 03:00:49;;;;;;;8.40;3.30;;;8.10;99.90;;;8.93;100.00;96365.47;5003934;28;20468;-77
2024/03/31 03:03:15;;;;;;;9.27;3.03;;;8.10;99.90;;;8.90;100.00;96371.94;5001019;28;20485;-77
2024/03/31 03:05:42;;;;;;;14.43;4.13;;;8.10;99.90;;;8.90;100.00;96365.91;5002154;28;20463;-77
2024/03/31 03:08:10;;;;;;;3.00;2.70;;;8.10;99.90;;;8.91;100.00;96367.53;5002363;28;20899;-77
2024/03/31 03:10:38;;;;;;;16.27;3.43;;;8.10;99.90;;;8.94;100.00;96367.06;4997095;28;20499;-77
2024/03/31 03:13:04;;;;;;;9.13;3.63;;;8.20;99.90;;;8.93;100.00;96376.69;5000014;28;20501;-77
2024/03/31 03:15:31;;;;;;;7.47;2.80;;;8.20;99.90;;;8.95;100.00;96369.47;4997705;28;20471;-77
2024/03/31 03:17:58;;;;;;;10.37;4.20;;;8.20;99.90;;;8.97;100.00;96359.63;5002151;28;20466;-77
2024/03/31 03:20:25;;;;;;;11.77;3.77;;;8.20;99.90;;;8.95;100.00;96364.25;4996678;28;20675;-77
2024/03/31 03:22:58;;;;;;;8.93;3.73;;;8.20;99.90;;;8.91;100.00;96368.31;5016282;28;20455;-77
2024/03/31 03:25:27;;;;;;;12.60;3.50;;;8.10;99.90;;;8.85;100.00;96379.59;5004913;28;20466;-77
2024/03/31 03:27:54;;;;;;;9.10;3.23;;;8.10;99.90;;;8.80;100.00;96387.28;4999556;28;20471;-78
2024/03/31 03:30:21;;;;;;;4.97;2.90;;;8.00;99.90;;;8.84;100.00;96390.25;5002218;28;20914;-77
2024/03/31 03:32:50;;;;;;;5.90;2.83;;;8.00;99.90;;;8.90;100.00;96390.19;4998467;28;20467;-77
2024/03/31 03:35:19;;;;;;;7.20;3.00;;;8.10;99.90;;;8.93;100.00;96386.31;5003345;28;20499;-77
2024/03/31 03:37:46;;;;;;;9.30;3.73;;;8.20;99.90;;;8.97;100.00;96387.50;5003774;28;20483;-77
2024/03/31 03:40:14;;;;;;;10.80;3.00;;;8.20;99.90;;;8.98;100.00;96373.44;5003970;28;20463;-77
2024/03/31 03:42:43;;;;;;;7.00;2.80;;;8.20;99.90;;;8.98;100.00;96373.44;4998930;28;20463;-77
2024/03/31 03:45:11;;;;;;;8.57;2.83;;;8.20;99.90;;;8.96;100.00;96370.25;4997370;28;20476;-77
2024/03/31 03:47:37;;;;;;;6.47;3.00;;;8.20;99.90;;;8.99;100.00;96375.03;4998691;28;20713;-77
2024/03/31 03:50:06;;;;;;;9.23;3.40;;;8.20;99.90;;;8.99;100.00;96375.03;5004120;28;20490;-77
2024/03/31 03:52:32;;;;;;;14.10;3.10;;;8.20;99.90;;;8.95;100.00;96373.88;5003133;28;20498;-77
2024/03/31 03:55:00;;;;;;;10.63;3.67;;;8.20;99.90;;;8.92;100.00;96362.06;5002598;28;20486;-76
2024/03/31 03:57:26;;;;;;;8.53;2.90;;;8.10;99.90;;;8.94;100.00;96367.88;5001091;28;20470;-77
2024/03/31 03:59:55;;;;;;;14.70;4.63;;;8.10;99.90;;;8.95;100.00;96356.44;5014646;28;20486;-77
2024/03/31 04:02:22;;;;;;;11.27;3.03;;;8.10;99.90;;;8.94;100.00;96351.44;5000650;28;20476;-77
2024/03/31 04:04:49;;;;;;;15.83;3.63;;;8.10;99.90;;;8.96;100.00;96355.41;5003471;28;20518;-77
2024/03/31 04:07:15;;;;;;;20.07;3.70;;;8.20;99.90;;;8.99;100.00;96354.16;4994113;28;20470;-83
2024/03/31 04:09:43;;;;;;;7.10;3.20;;;8.20;99.90;;;8.94;100.00;96356.66;5012186;28;20478;-77
2024/03/31 04:12:10;;;;;;;10.63;3.60;;;8.10;99.90;;;8.91;100.00;96357.09;4998884;28;20471;-77
2024/03/31 04:14:37;;;;;;;7.87;3.90;;;8.10;99.90;;;8.95;100.00;96353.84;5013827;28;20483;-77
2024/03/31 04:17:05;;;;;;;8.57;3.10;;;8.10;99.90;;;8.96;100.00;96344.19;4992464;28;20483;-77
2024/03/31 04:19:33;;;;;;;9.37;3.50;;;8.10;99.90;;;8.92;100.00;96341.22;4992740;28;20909;-77
2024/03/31 04:21:59;;;;;;;6.83;3.27;;;8.10;99.90;;;8.87;100.00;96340.28;4988825;28;20487;-77
2024/03/31 04:24:27;;;;;;;8.37;3.23;;;8.10;99.90;;;8.85;100.00;96342.34;4999272;28;20466;-82
2024/03/31 04:26:53;;;;;;;24.80;11.67;;;8.10;99.90;;;8.87;100.00;96343.69;4997698;28;20466;-78
2024/03/31 04:29:21;;;;;;;9.17;3.80;;;8.10;99.90;;;8.89;100.00;96343.47;4995200;28;20489;-77
2024/03/31 04:31:54;;;;;;;15.17;3.30;;;8.10;99.90;;;8.87;100.00;96335.88;4998726;28;20568;-76
2024/03/31 04:34:27;;;;;;;7.70;3.20;;;8.10;99.90;;;8.89;100.00;96343.47;5002093;28;21086;-76
2024/03/31 04:36:55;;;;;;;8.03;3.20;;;8.00;99.90;;;8.93;100.00;96344.63;4998518;28;20470;-76
2024/03/31 04:39:24;;;;;;;7.63;3.50;;;8.10;99.90;;;8.95;100.00;96342.59;4998555;28;20491;-76
2024/03/31 04:41:53;;;;;;;4.77;2.83;;;8.10;99.90;;;8.94;100.00;96331.38;4999555;28;20483;-77
2024/03/31 04:44:20;;;;;;;9.87;3.33;;;8.10;99.90;;;8.95;100.00;96343.41;5000309;28;20462;-77
2024/03/31 04:46:50;;;;;;;18.50;3.13;;;8.20;99.90;;;8.94;100.00;96347.03;4997916;28;20511;-76
2024/03/31 04:49:16;;;;;;;12.73;2.77;;;8.20;99.90;;;8.96;100.00;96349.41;4997899;28;20470;-77
2024/03/31 04:51:48;;;;;;;6.60;2.50;;;8.20;99.90;;;8.96;100.00;96352.00;5003727;28;20577;-77
2024/03/31 04:54:16;;;;;;;10.13;2.80;;;8.20;99.90;;;9.01;100.00;96347.75;5003532;28;20825;-76
2024/03/31 04:56:44;;;;;;;6.70;2.93;;;8.20;99.90;;;9.02;100.00;96358.97;5005312;28;20481;-77
2024/03/31 04:59:10;;;;;;;8.20;3.50;;;8.20;99.90;;;9.03;100.00;96361.34;5004974;28;20536;-77
2024/03/31 05:01:38;;;;;;;15.17;3.40;;;8.20;99.90;;;9.06;100.00;96349.66;5004656;28;20483;-77
2024/03/31 05:04:05;;;;;;;8.33;2.97;;;8.20;99.90;;;9.02;100.00;96353.75;5013731;28;20475;-77
2024/03/31 05:06:33;;;;;;;10.50;2.67;;;8.20;99.90;;;8.97;100.00;96346.59;5003763;28;20471;-77
2024/03/31 05:09:03;;;;;;;6.90;2.30;;;8.20;99.90;;;8.95;100.00;96353.84;4994136;28;20835;-76
2024/03/31 05:11:30;;;;;;;8.97;3.00;;;8.10;99.90;;;8.93;100.00;96365.47;4996764;28;20923;-77
2024/03/31 05:13:57;;;;;;;12.00;2.80;;;8.20;99.90;;;8.96;100.00;96370.25;4998430;28;20478;-76
2024/03/31 05:16:24;;;;;;;9.67;3.27;;;8.20;99.90;;;8.99;100.00;96364.59;5001462;28;20472;-76
2024/03/31 05:18:53;;;;;;;14.77;3.08;;;8.20;99.90;;;9.03;100.00;96365.75;5004364;28;20471;-76
2024/03/31 05:21:21;;;;;;;9.80;3.40;;;8.30;99.90;;;9.06;100.00;96367.94;4997808;28;20676;-77
2024/03/31 05:23:48;;;;;;;8.83;3.20;;;8.30;99.90;;;9.09;100.00;96370.13;4996897;28;20823;-83
2024/03/31 05:26:17;;;;;;;7.07;3.00;;;8.30;99.90;;;9.11;100.00;96373.28;4994771;28;20469;-78
2024/03/31 05:28:43;;;;;;;10.20;3.20;;;8.30;99.90;;;9.12;100.00;96369.69;5013809;28;20467;-77
2024/03/31 05:31:10;;;;;;;6.10;2.67;;;8.30;99.90;;;9.11;100.00;96357.66;5015784;28;20485;-76
2024/03/31 05:33:37;;;;;;;7.50;2.47;;;8.30;99.90;;;9.07;100.00;96333.03;5004593;28;20469;-76
2024/03/31 05:36:05;;;;;;;10.50;2.90;;;8.30;99.90;;;8.93;100.00;96272.44;5001780;28;20855;-75
2024/03/31 05:38:31;;;;;;;11.17;3.40;;;8.20;99.90;;;9.04;100.00;96252.66;5004749;28;20471;-75
2024/03/31 05:41:00;;;;;;;8.00;3.37;;;8.30;99.90;;;9.02;100.00;96271.09;5013445;28;20474;-76
2024/03/31 05:43:28;;;;;;;6.23;2.80;;;8.30;99.90;;;9.00;100.00;96272.34;5002927;28;20471;-76
2024/03/31 05:45:56;;;;;;;7.03;2.80;;;8.30;99.90;;;9.05;100.00;96264.69;4999959;28;21150;-76
2024/03/31 05:48:22;;;;;;;4.67;2.53;;;8.30;99.90;;;9.05;100.00;96270.69;5001152;28;20491;-76
2024/03/31 05:50:50;;;;;;;12.30;3.80;;;8.30;99.90;;;9.06;100.00;96276.66;5003390;28;20490;-76
2024/03/31 05:53:16;;;;;;;4.73;2.40;;;8.30;99.90;;;9.12;100.00;96275.81;5016919;28;20464;-77
2024/03/31 05:55:43;;;;;;;17.90;3.17;;;8.40;99.90;;;9.17;100.00;96283.75;5004744;28;20501;-76
2024/03/31 05:58:10;;;;;;;6.50;3.10;;;8.50;99.90;;;9.22;100.00;96270.84;5000835;28;20464;-77
2024/03/31 06:00:39;;;;;;;10.03;2.63;;;8.50;99.90;;;9.23;100.00;96272.47;5003128;28;20529;-76
2024/03/31 06:03:06;;;;;;;10.53;2.93;;;8.50;99.90;;;9.29;100.00;96265.53;4998948;28;20471;-77
2024/03/31 06:05:33;;;;;;;7.27;2.57;;;8.50;99.90;;;9.24;100.00;96258.38;5001783;28;20475;-77
2024/03/31 06:08:00;;;;;;;13.03;2.90;;;8.50;99.90;;;9.26;100.00;96272.00;5004513;28;20487;-76
2024/03/31 06:10:27;;;;;;;7.40;2.83;;;8.50;99.90;;;9.29;100.00;96271.56;5013779;28;20495;-77
2024/03/31 06:12:53;;;;;;;6.97;2.60;;;8.50;99.90;;;9.33;100.00;96274.53;5000823;28;20466;-77
2024/03/31 06:15:21;;;;;;;5.87;2.10;;;8.60;99.90;;;9.35;100.00;96281.09;5015983;28;20510;-77
2024/03/31 06:17:49;;;;;;;8.33;2.10;;;8.60;99.90;;;9.40;100.00;96273.41;4998538;28;20496;-76
2024/03/31 06:20:16;;;;;;;5.37;2.50;;;8.60;99.90;;;9.44;100.00;96266.69;5002246;28;20473;-77
2024/03/31 06:22:43;;;;;;;9.13;2.10;;;8.70;99.90;;;9.49;100.00;96266.84;5000798;28;20492;-77
2024/03/31 06:25:10;;;;;;;9.87;1.90;;;8.80;99.90;;;9.54;100.00;96269.56;5004223;28;20464;-77
2024/03/31 06:27:37;;;;;;;3.47;2.17;;;8.80;99.90;;;9.58;100.00;96270.72;5003842;28;20461;-76
2024/03/31 06:30:05;;;;;;;6.97;2.17;;;8.80;99.90;;;9.55;100.00;96284.19;5001826;28;21106;-77
2024/03/31 06:32:32;;;;;;;4.90;2.00;;;8.80;99.90;;;9.58;100.00;96282.94;4999982;28;20506;-85
2024/03/31 06:35:03;;;;;;;9.50;4.20;;;8.80;99.90;;;9.61;100.00;96287.75;5001643;28;20970;-77
2024/03/31 06:37:29;;;;;;;9.67;2.50;;;8.90;99.90;;;9.66;100.00;96293.06;5001548;28;20478;-77
2024/03/31 06:39:57;;;;;;;5.93;3.00;;;9.00;99.90;;;9.69;100.00;96297.03;4999001;28;20486;-77
2024/03/31 06:42:23;;;;;;;11.73;2.90;;;9.00;99.90;;;9.68;100.00;96295.47;5001370;28;20987;-77
2024/03/31 06:44:51;;;;;;;9.63;2.23;;;9.00;99.90;;;9.61;100.00;96287.75;4997671;28;20480;-77
2024/03/31 06:47:17;;;;;;;8.60;2.70;;;9.00;99.90;;;9.63;100.00;96277.88;4999141;28;20477;-77
2024/03/31 06:49:45;;;;;;;6.50;2.30;;;9.00;99.90;;;9.65;100.00;96280.28;5001165;28;20450;-77
2024/03/31 06:52:12;;;;;;;13.03;2.30;;;9.00;99.90;;;9.67;100.00;96263.34;5003796;28;21008;-78
2024/03/31 06:54:40;;;;;;;9.33;2.53;;;9.00;99.90;;;9.72;100.00;96254.88;4999486;28;20469;-78
2024/03/31 06:57:06;;;;;;;7.13;2.40;;;9.00;99.90;;;9.76;100.00;96258.59;5001663;28;20968;-77
2024/03/31 06:59:34;;;;;;;9.23;2.37;;;9.10;99.90;;;9.80;100.00;96252.69;5001274;28;20460;-78
2024/03/31 07:02:00;;;;;;;7.83;2.30;;;9.20;99.90;;;9.85;100.00;96254.63;4995695;28;20477;-77
2024/03/31 07:04:27;;;;;;;3.53;2.30;;;9.20;99.90;;;9.90;100.00;96252.94;5000717;28;20470;-77
2024/03/31 07:06:54;;;;;;;4.17;2.20;;;9.20;99.90;;;9.95;100.00;96247.03;4999083;28;20466;-77
2024/03/31 07:09:23;;;;;;;5.13;1.77;;;9.30;99.90;;;10.00;100.00;96240.09;5001030;28;20517;-78
2024/03/31 07:11:49;;;;;;;4.73;1.93;;;9.30;99.90;;;10.04;100.00;96235.22;5003046;28;20576;-77
2024/03/31 07:14:17;;;;;;;4.23;2.13;;;9.30;99.90;;;10.06;100.00;96239.22;4999274;28;20998;-77
2024/03/31 07:16:43;;;;;;;11.27;2.23;;;9.40;99.90;;;10.08;100.00;96233.75;4998541;28;20484;-77
2024/03/31 07:19:11;;;;;;;9.77;1.70;;;9.40;99.90;;;10.15;100.00;96224.00;5001503;28;20540;-78
2024/03/31 07:21:37;;;;;;;2.90;1.87;;;9.40;99.90;;;10.24;100.00;96237.53;4998552;28;20652;-78
2024/03/31 07:24:05;;;;;;;4.10;2.07;;;9.50;99.90;;;10.27;100.00;96226.59;5002253;28;20470;-78
2024/03/31 07:26:33;;;;;;;6.07;1.87;;;9.50;99.90;;;10.28;100.00;96221.13;4999823;28;20467;-78
2024/03/31 07:29:00;;;;;;;13.07;2.27;;;9.60;99.90;;;10.34;100.00;96215.00;4999310;28;20477;-76
2024/03/31 07:31:27;;;;;;;6.50;1.93;;;9.60;99.90;;;10.41;100.00;96217.50;4999232;28;20493;-77
2024/03/31 07:33:57;;;;;;;5.20;1.67;;;9.70;99.90;;;10.41;100.00;96217.50;4995054;28;20466;-77
2024/03/31 07:36:24;;;;;;;8.80;1.87;;;9.80;99.90;;;10.44;100.00;96217.81;4993497;28;21134;-77
2024/03/31 07:38:51;;;;;;;6.80;2.20;;;9.70;99.90;;;10.50;100.00;96218.72;4995319;28;20480;-77
2024/03/31 07:41:18;;;;;;;10.80;2.17;;;9.80;99.90;;;10.55;100.00;96218.81;5014308;28;20478;-84
2024/03/31 07:43:47;;;;;;;45.37;21.97;;;9.80;99.90;;;10.58;100.00;96221.78;4995657;28;20478;-78
2024/03/31 07:46:13;;;;;;;4.60;2.30;;;9.90;99.90;;;10.58;100.00;96219.16;4999675;28;20497;-78
2024/03/31 07:48:40;;;;;;;4.43;1.80;;;9.90;99.90;;;10.61;100.00;96223.13;4999010;28;20791;-78
2024/03/31 07:51:07;;;;;;;10.87;1.87;;;9.90;99.90;;;10.62;100.00;96216.06;4997604;28;20477;-78
2024/03/31 07:53:34;;;;;;;2.67;1.50;;;9.90;99.90;;;10.59;100.00;96214.69;5011700;28;20474;-77
2024/03/31 07:56:02;;;;;;;7.93;2.27;;;9.90;99.90;;;10.57;100.00;96211.53;4996264;28;20474;-77
2024/03/31 07:58:29;;;;;;;6.13;2.07;;;9.90;99.90;;;10.55;100.00;96211.75;5007854;28;20983;-78
2024/03/31 08:01:00;;;;;;;5.77;2.00;;;9.90;99.90;;;10.59;100.00;96210.28;5002819;28;20516;-77
2024/03/31 08:03:28;;;;;;;5.23;1.93;;;10.00;99.90;;;10.63;100.00;96215.03;5002729;28;20458;-77
2024/03/31 08:05:55;;;;;;;7.10;1.90;;;10.00;99.90;;;10.66;100.00;96215.34;5001128;28;20469;-76
2024/03/31 08:08:23;;;;;;;11.23;1.93;;;10.10;99.90;;;10.74;100.00;96212.38;5003665;28;20479;-76
2024/03/31 08:10:49;;;;;;;6.43;1.93;;;10.10;99.90;;;10.77;100.00;96206.69;5001103;28;20474;-76
2024/03/31 08:13:16;;;;;;;3.03;1.73;;;10.10;99.90;;;10.84;100.00;96201.31;5014935;28;20962;-76
2024/03/31 08:15:44;;;;;;;7.37;2.20;;;10.10;99.90;;;10.90;100.00;96216.06;4997979;28;20474;-76
2024/03/31 08:18:13;;;;;;;6.20;1.90;;;10.20;99.90;;;10.91;100.00;96213.22;4997393;28;20492;-76
2024/03/31 08:20:40;;;;;;;8.60;2.07;;;10.30;99.90;;;10.93;100.00;96213.78;5007992;28;20508;-76
2024/03/31 08:23:07;;;;;;;4.67;1.80;;;10.30;99.90;;;10.93;100.00;96210.38;5006553;28;20474;-77
2024/03/31 08:25:37;;;;;;;7.03;2.27;;;10.30;99.90;;;10.94;100.00;96212.75;5003102;28;20462;-77
2024/03/31 08:28:06;;;;;;;5.20;2.17;;;10.30;99.90;;;10.92;100.00;96216.63;4998642;28;20475;-76
2024/03/31 08:30:32;;;;;;;7.63;1.90;;;10.40;99.90;;;10.96;100.00;96215.16;5000462;28;20479;-76
2024/03/31 08:33:00;;;;;;;5.90;2.00;;;10.40;99.90;;;11.01;100.00;96218.63;5002924;28;20557;-77
2024/03/31 08:35:27;;;;;;;7.90;2.73;;;10.40;99.90;;;11.05;100.00;96226.81;5016849;28;20524;-76
2024/03/31 08:37:55;;;;;;;5.83;2.13;;;10.40;99.90;;;11.11;100.00;96233.72;5005579;28;20501;-76
2024/03/31 08:40:30;;;;;;;5.77;2.00;;;10.50;99.90;;;11.14;100.00;96230.66;5003805;28;20468;-76
2024/03/31 08:43:05;;;;;;;6.20;2.30;;;10.60;99.90;;;11.12;100.00;96243.16;5020225;28;20474;-76
2024/03/31 08:45:34;;;;;;;3.33;1.70;;;10.60;99.90;;;11.10;100.00;96245.22;5018785;28;20492;-76
2024/03/31 08:48:05;;;;;;;13.17;2.00;;;10.60;99.90;;;11.16;100.00;96256.56;5019753;28;21160;-76
2024/03/31 08:50:35;;;;;;;2.63;1.80;;;10.60;99.90;;;11.20;100.00;96245.41;5004507;28;20469;-75
2024/03/31 08:53:02;;;;;;;15.93;2.00;;;10.70;99.90;;;11.22;100.00;96256.41;5019751;28;20526;-77
2024/03/31 08:55:29;;;;;;;4.53;2.00;;;10.70;99.90;;;11.18;100.00;96260.53;5004417;28;20474;-77
2024/03/31 08:57:56;;;;;;;6.37;2.33;;;10.60;99.90;;;11.11;100.00;96265.09;5004201;28;20472;-76
2024/03/31 09:00:25;;;;;;;8.70;2.70;;;10.60;99.90;;;11.06;100.00;96267.63;5006128;28;20478;-76
2024/03/31 09:02:53;;;;;;;8.37;2.20;;;10.60;99.90;;;11.10;100.00;96268.75;5006564;28;20484;-76
2024/03/31 09:05:19;;;;;;;8.97;2.70;;;10.60;99.90;;;11.08;100.00;96268.19;5019571;28;20472;-76
2024/03/31 09:07:48;;;;;;;3.53;2.70;;;10.50;99.90;;;11.00;100.00;96281.66;5002932;28;20539;-76
2024/03/31 09:10:15;;;;;;;5.10;2.47;;;10.50;99.90;;;10.99;100.00;96277.44;5007763;28;20465;-76
2024/03/31 09:12:44;;;;;;;8.93;3.10;;;10.50;99.90;;;10.97;100.00;96285.50;5001559;28;20560;-76
2024/03/31 09:15:11;;;;;;;8.50;3.07;;;10.50;99.90;;;11.06;100.00;96288.56;5002492;28;20528;-76
2024/03/31 09:17:39;;;;;;;15.13;2.67;;;10.50;99.90;;;11.13;100.00;96275.34;5018107;28;20480;-76
2024/03/31 09:20:07;;;;;;;5.57;2.70;;;10.50;99.90;;;11.14;100.00;96279.56;5001249;28;20842;-76
2024/03/31 09:22:35;;;;;;;5.80;3.00;;;10.50;99.90;;;11.11;100.00;96278.97;5000891;28;20499;-76
2024/03/31 09:25:04;;;;;;;5.77;2.83;;;10.60;99.90;;;11.17;100.00;96268.63;5001721;28;20486;-76
2024/03/31 09:27:32;;;;;;;6.03;2.67;;;10.60;99.90;;;11.24;100.00;96272.69;5003489;28;20477;-76
2024/03/31 09:29:58;;;;;;;9.33;2.80;;;10.60;99.90;;;11.32;100.00;96272.28;5005752;28;20887;-76
2024/03/31 09:32:27;;;;;;;8.73;2.90;;;10.70;99.90;;;11.36;100.00;96273.41;5002195;28;20494;-76
2024/03/31 09:34:54;;;;;;;8.17;2.47;;;10.80;99.90;;;11.42;100.00;96269.84;5007104;28;20476;-76
2024/03/31 09:37:22;;;;;;;9.70;2.63;;;10.80;99.90;;;11.46;100.00;96272.78;5005163;28;20489;-76
2024/03/31 09:39:49;;;;;;;9.73;3.30;;;10.80;99.90;;;11.48;100.00;96273.34;5008484;28;20470;-76
2024/03/31 09:42:18;;;;;;;5.47;2.40;;;10.90;99.90;;;11.51;100.00;96271.06;5005485;28;20471;-76
2024/03/31 09:44:45;;;;;;;5.93;3.13;;;10.90;99.90;;;11.56;100.00;96268.50;5002321;28;20479;-77
2024/03/31 09:47:27;;;;;;;11.88;3.60;;;10.90;99.90;;;11.57;100.00;96270.09;5005096;28;20459;-76
2024/03/31 09:50:04;;;;;;;4.67;2.50;;;10.90;99.90;;;11.61;100.00;96270.44;4996866;28;20219;-78
2024/03/31 09:52:34;;;;;;;5.00;2.43;;;11.00;99.90;;;11.65;100.00;96270.75;4999004;28;20747;-78
2024/03/31 09:55:07;;;;;;;5.43;2.60;;;11.10;99.90;;;11.62;100.00;96266.78;4997051;28;20483;-77
2024/03/31 09:57:43;;;;;;;17.13;4.50;;;11.00;99.90;;;11.55;100.00;96282.66;5012851;28;20496;-78
2024/03/31 10:00:13;;;;;;;15.57;3.30;;;11.10;99.90;;;11.53;100.00;96278.66;5003384;28;20466;-78
2024/03/31 10:02:47;;;;;;;4.20;2.53;;;11.00;99.90;;;11.58;100.00;96276.16;4997962;28;20896;-78
2024/03/31 10:05:20;;;;;;;28.23;10.37;;;11.10;99.90;;;11.62;100.00;96272.03;5000953;28;20998;-83
2024/03/31 10:07:49;;;;;;;9.80;3.17;;;11.10;99.90;;;11.60;100.00;96268.84;4997029;28;20467;-77
2024/03/31 10:10:18;;;;;;;11.63;3.10;;;11.10;99.90;;;11.69;100.00;96253.53;5003521;28;20470;-78
2024/03/31 10:12:51;;;;;;;6.97;2.60;;;11.10;99.90;;;11.76;100.00;96259.44;5002378;28;20496;-77
2024/03/31 10:15:20;;;;;;;10.93;2.90;;;11.20;99.90;;;11.83;100.00;96247.78;4997557;28;20471;-77
2024/03/31 10:17:50;;;;;;;12.87;3.27;;;11.30;99.90;;;11.90;100.00;96252.84;5000600;28;20923;-77
2024/03/31 10:20:18;;;;;;;10.20;3.37;;;11.30;99.90;;;11.96;100.00;96250.06;5004191;28;20472;-77
2024/03/31 10:22:47;;;;;;;5.03;2.53;;;11.30;99.90;;;11.99;100.00;96246.16;5018313;28;20551;-78